Time;durP1;ratioP1;P1;durP2;ratioP2;P2;SDS_P1;SDS_P2;PMS_P1;PMS_P2;Temp;Humidity;BMP_temperature;BMP_pressure;BME280_temperature;BME280_humidity;BME280_pressure;Samples;Min_cycle;Max_cycle;Signal;HPM_P1;HPM_P2
2021/01/27 00:01:03;;;;;;;8.93;6.45;;;;;;;0.86;100.00;100872.94;10256300;28;20047;-73
2021/01/27 00:06:04;;;;;;;12.88;5.30;;;;;;;0.72;100.00;100865.19;10294886;28;20047;-73
2021/01/27 00:11:05;;;;;;;7.22;4.68;;;;;;;0.93;100.00;100871.22;10259213;28;20043;-73
2021/01/27 00:16:07;;;;;;;7.95;5.53;;;;;;;1.03;100.00;100873.81;10227943;28;20040;-73
2021/01/27 00:21:08;;;;;;;7.50;5.30;;;;;;;1.11;100.00;100868.59;10254438;28;20050;-73
2021/01/27 00:26:09;;;;;;;8.35;4.82;;;;;;;0.85;100.00;100828.84;10253391;29;20043;-73
2021/01/27 00:31:10;;;;;;;7.50;4.43;;;;;;;0.79;100.00;100845.28;10235916;29;20051;-73
2021/01/27 00:36:12;;;;;;;6.38;4.05;;;;;;;0.70;100.00;100832.34;10253646;29;20125;-73
2021/01/27 00:41:13;;;;;;;7.68;4.70;;;;;;;0.63;100.00;100818.53;10235998;28;20068;-73
2021/01/27 00:46:14;;;;;;;6.35;4.65;;;;;;;0.83;100.00;100841.00;10253149;29;20055;-73
2021/01/27 00:51:15;;;;;;;10.30;5.30;;;;;;;0.93;100.00;100840.09;10253467;29;20050;-73
2021/01/27 00:56:18;;;;;;;8.23;5.18;;;;;;;1.04;100.00;100851.31;10253999;28;20445;-73
2021/01/27 01:01:19;;;;;;;8.18;5.15;;;;;;;1.00;100.00;100847.03;10257149;28;20054;-73
2021/01/27 01:06:22;;;;;;;7.55;5.00;;;;;;;1.07;100.00;100851.31;10287338;28;20049;-73
2021/01/27 01:11:23;;;;;;;6.95;4.93;;;;;;;1.08;100.00;100843.53;10243483;29;20423;-73
2021/01/27 01:16:24;;;;;;;9.32;6.03;;;;;;;1.17;100.00;100853.03;10264913;28;20043;-73
2021/01/27 01:21:25;;;;;;;9.02;6.18;;;;;;;1.29;100.00;100844.34;10299811;28;20054;-73
2021/01/27 01:26:27;;;;;;;8.65;5.20;;;;;;;1.37;100.00;100842.59;10278012;28;20087;-73
2021/01/27 01:31:29;;;;;;;7.65;5.53;;;;;;;1.67;99.97;100845.09;10258979;28;20050;-73
2021/01/27 01:36:31;;;;;;;7.75;4.47;;;;;;;1.81;95.14;100848.47;10259862;29;20480;-73
2021/01/27 01:41:32;;;;;;;6.32;4.22;;;;;;;2.02;90.87;100844.03;10241729;29;20051;-73
2021/01/27 01:46:33;;;;;;;7.22;4.07;;;;;;;2.08;88.25;100823.22;10258858;29;20467;-73
2021/01/27 01:51:48;;;;;;;7.35;4.47;;;;;;;2.11;87.38;100826.66;10242333;29;20101;-73
2021/01/27 01:56:58;;;;;;;5.60;3.72;;;;;;;2.44;85.53;100848.09;10242089;29;20051;-73
2021/01/27 02:02:03;;;;;;;5.30;3.35;;;;;;;2.50;84.04;100830.72;10260765;28;20043;-73
2021/01/27 02:07:05;;;;;;;4.90;2.80;;;;;;;2.36;84.11;100785.75;10259117;29;20078;-73
2021/01/27 02:12:40;;;;;;;4.95;3.67;;;;;;;2.40;85.04;100799.59;10258804;28;20046;-73
2021/01/27 02:17:53;;;;;;;5.40;3.60;;;;;;;2.19;89.42;100769.41;10273399;28;20493;-73
2021/01/27 02:23:16;;;;;;;4.80;3.22;;;;;;;2.13;92.54;100749.56;10271759;28;20058;-73
2021/01/27 02:28:41;;;;;;;4.97;2.83;;;;;;;2.08;94.25;100732.28;10254076;28;20408;-73
2021/01/27 02:34:25;;;;;;;4.38;2.47;;;;;;;2.04;95.19;100725.38;10238666;29;20472;-73
2021/01/27 02:39:31;;;;;;;4.68;2.40;;;;;;;2.04;95.86;100735.75;10256876;29;20055;-73
2021/01/27 02:44:49;;;;;;;6.20;2.85;;;;;;;1.98;97.21;100715.03;10257303;29;20039;-73
2021/01/27 02:50:07;;;;;;;4.78;2.65;;;;;;;1.96;99.06;100719.38;10238556;29;20051;-73
2021/01/27 02:55:10;;;;;;;3.80;2.42;;;;;;;1.89;100.00;100723.75;10255580;29;20047;-73
2021/01/27 03:00:15;;;;;;;3.80;2.72;;;;;;;1.71;100.00;100705.69;10255189;29;20411;-73
2021/01/27 03:05:27;;;;;;;4.57;3.10;;;;;;;1.67;100.00;100694.47;10215835;29;20047;-73
2021/01/27 03:10:34;;;;;;;5.60;3.00;;;;;;;1.58;100.00;100683.28;10232038;28;20059;-73
2021/01/27 03:15:39;;;;;;;5.10;2.80;;;;;;;1.55;100.00;100672.91;10239340;29;20058;-73
2021/01/27 03:20:44;;;;;;;6.57;3.05;;;;;;;1.44;100.00;100663.44;10277845;28;20047;-73
2021/01/27 03:25:55;;;;;;;7.75;3.13;;;;;;;1.47;100.00;100667.78;10263796;28;20047;-73
2021/01/27 03:30:57;;;;;;;4.30;2.92;;;;;;;1.35;100.00;100662.63;10254548;28;20040;-73
2021/01/27 03:36:02;;;;;;;6.95;2.72;;;;;;;1.37;100.00;100685.13;10254870;29;20047;-73
2021/01/27 03:41:09;;;;;;;;;;;;;;;1.31;100.00;100669.59;10255298;28;20058;-73
2021/01/27 03:46:26;;;;;;;9.75;5.85;;;;;;;1.44;100.00;100667.78;10255203;29;19922;-73
2021/01/27 03:51:34;;;;;;;9.63;5.38;;;;;;;1.40;100.00;100647.94;10237316;29;20059;-73
2021/01/27 03:56:47;;;;;;;8.75;5.35;;;;;;;1.32;100.00;100631.53;10250370;29;20048;-73
2021/01/27 04:01:57;;;;;;;8.18;5.25;;;;;;;1.21;100.00;100610.84;10222243;29;20098;-73
2021/01/27 04:06:58;;;;;;;6.07;4.20;;;;;;;1.30;100.00;100625.50;10214698;29;20051;-73
2021/01/27 04:11:59;;;;;;;7.10;4.38;;;;;;;1.22;100.00;100622.94;10216479;28;20047;-73
2021/01/27 04:17:13;;;;;;;6.32;4.13;;;;;;;1.21;100.00;100626.41;10263750;28;20038;-73
2021/01/27 04:22:14;;;;;;;9.63;5.38;;;;;;;0.83;100.00;100608.47;10293989;28;20554;-73
2021/01/27 04:27:15;;;;;;;7.82;4.82;;;;;;;0.65;100.00;100580.03;10247106;29;20051;-73
2021/01/27 04:32:17;;;;;;;8.50;5.07;;;;;;;0.62;100.00;100564.47;10253977;29;20063;-73
2021/01/27 04:37:18;;;;;;;7.00;4.88;;;;;;;0.61;100.00;100544.59;10254084;28;20403;-74
2021/01/27 04:42:27;;;;;;;8.32;5.40;;;;;;;0.60;100.00;100541.16;10245476;29;20047;-73
2021/01/27 04:47:46;;;;;;;10.63;6.35;;;;;;;0.50;100.00;100517.91;10261232;29;20208;-73
2021/01/27 04:53:25;;;;;;;7.38;5.43;;;;;;;0.63;100.00;100525.59;10260877;29;20070;-73
2021/01/27 04:58:49;;;;;;;7.75;4.70;;;;;;;0.68;100.00;100531.59;10260589;28;20133;-73
2021/01/27 05:04:16;;;;;;;10.63;5.88;;;;;;;0.69;100.00;100522.09;10261597;29;20039;-73
2021/01/27 05:09:23;;;;;;;9.35;6.00;;;;;;;0.75;100.00;100529.88;10261451;28;20047;-73
2021/01/27 05:14:25;;;;;;;10.90;5.50;;;;;;;0.69;100.00;100514.31;10260352;29;20047;-73
2021/01/27 05:19:26;;;;;;;11.48;5.70;;;;;;;0.69;100.00;100514.31;10290135;28;20054;-73
2021/01/27 05:24:27;;;;;;;7.35;4.95;;;;;;;0.85;100.00;100528.03;10261996;28;20051;-73
2021/01/27 05:29:32;;;;;;;7.80;4.20;;;;;;;0.91;100.00;100523.72;10259900;28;20404;-73
2021/01/27 05:34:39;;;;;;;4.63;2.60;;;;;;;1.05;100.00;100533.97;10242966;29;20054;-72
2021/01/27 05:39:42;;;;;;;5.07;3.15;;;;;;;1.06;100.00;100533.13;10259856;28;20066;-74
2021/01/27 05:44:43;;;;;;;6.60;2.40;;;;;;;1.04;100.00;100525.34;10259444;29;20047;-73
2021/01/27 05:49:44;;;;;;;9.43;4.00;;;;;;;0.93;100.00;100508.09;10258666;28;20048;-73
2021/01/27 05:54:45;;;;;;;5.78;3.33;;;;;;;0.82;100.00;100490.06;10267798;28;20388;-73
2021/01/27 05:59:48;;;;;;;6.22;2.90;;;;;;;0.72;100.00;100488.38;10258286;29;20051;-73
2021/01/27 06:04:57;;;;;;;7.40;4.35;;;;;;;0.69;100.00;100465.06;10259176;29;20059;-73
2021/01/27 06:10:28;;;;;;;6.10;3.47;;;;;;;0.60;100.00;100453.03;10257599;29;20039;-73
2021/01/27 06:15:30;;;;;;;6.40;3.13;;;;;;;0.52;100.00;100441.84;10241268;29;20051;-73
2021/01/27 06:20:34;;;;;;;5.47;2.88;;;;;;;0.47;100.00;100453.97;10259969;28;20047;-73
2021/01/27 06:26:07;;;;;;;6.60;4.23;;;;;;;0.46;100.00;100451.38;10269375;28;20463;-73
2021/01/27 06:31:26;;;;;;;5.82;3.50;;;;;;;0.43;100.00;100443.63;10244427;29;20404;-73
2021/01/27 06:37:15;;;;;;;5.03;3.13;;;;;;;0.36;100.00;100435.88;10256667;29;20055;-73
2021/01/27 06:42:25;;;;;;;5.50;3.42;;;;;;;0.42;100.00;100449.69;10204098;29;20059;-72
2021/01/27 06:47:36;;;;;;;4.78;3.25;;;;;;;0.30;100.00;100446.28;10215239;29;20043;-71
2021/01/27 06:53:12;;;;;;;6.63;3.80;;;;;;;0.23;100.00;100449.78;10240769;29;20312;-71
2021/01/27 06:58:36;;;;;;;7.95;4.70;;;;;;;0.12;100.00;100435.16;10255681;29;20051;-72
2021/01/27 07:03:40;;;;;;;7.47;3.97;;;;;;;0.10;100.00;100462.78;10267756;28;20043;-73
2021/01/27 07:09:09;;;;;;;7.85;5.75;;;;;;;0.11;100.00;100486.09;10263228;28;20054;-72
2021/01/27 07:14:32;;;;;;;7.15;5.10;;;;;;;0.14;100.00;100493.00;10270976;28;20044;-72
2021/01/27 07:20:07;;;;;;;9.88;4.45;;;;;;;0.12;100.00;100492.13;10286443;28;20046;-73
2021/01/27 07:25:26;;;;;;;10.27;6.50;;;;;;;0.06;100.00;100484.41;10264742;28;20059;-72
2021/01/27 07:30:50;;;;;;;9.48;7.05;;;;;;;0.04;100.00;100512.03;10260451;28;20043;-73
2021/01/27 07:36:00;;;;;;;12.45;9.82;;;;;;;0.03;100.00;100511.16;10254435;29;20481;-73
2021/01/27 07:41:06;;;;;;;20.50;12.27;;;;;;;0.06;100.00;100534.47;10253195;28;20416;-72
2021/01/27 07:46:07;;;;;;;15.57;12.70;;;;;;;0.05;100.00;100532.75;10277816;28;20066;-73
2021/01/27 07:51:20;;;;;;;15.07;10.55;;;;;;;0.13;100.00;100524.94;10233616;28;20043;-73
2021/01/27 07:56:37;;;;;;;14.35;10.63;;;;;;;0.06;100.00;100534.47;10215630;29;20036;-73
2021/01/27 08:01:50;;;;;;;23.25;12.38;;;;;;;0.15;100.00;100537.03;10219495;28;20496;-72
2021/01/27 08:06:55;;;;;;;12.50;9.48;;;;;;;0.24;100.00;100557.72;10260722;28;20127;-73
2021/01/27 08:12:17;;;;;;;12.77;8.15;;;;;;;0.24;100.00;100569.81;10252888;28;20054;-71
2021/01/27 08:17:51;;;;;;;9.30;7.28;;;;;;;0.44;100.00;100606.88;10265228;28;20058;-72
2021/01/27 08:22:57;;;;;;;8.55;6.70;;;;;;;0.36;100.00;100586.16;10289636;28;20063;-72
2021/01/27 08:28:23;;;;;;;8.25;5.70;;;;;;;0.56;100.00;100586.09;10283818;28;20506;-71
2021/01/27 08:33:40;;;;;;;8.13;4.90;;;;;;;0.65;100.00;100582.63;10252730;29;20389;-71
2021/01/27 08:38:47;;;;;;;5.40;4.20;;;;;;;0.75;100.00;100572.19;10252019;28;20097;-72
2021/01/27 08:43:54;;;;;;;6.25;4.40;;;;;;;0.67;100.00;100566.16;10252841;29;20138;-73
2021/01/27 08:48:55;;;;;;;9.52;5.15;;;;;;;0.76;100.00;100589.47;10252220;29;20496;-73
2021/01/27 08:53:57;;;;;;;10.07;6.20;;;;;;;0.92;100.00;100592.84;10235264;29;20059;-72
2021/01/27 08:59:26;;;;;;;8.85;5.72;;;;;;;0.95;100.00;100602.34;10252274;29;20047;-72
2021/01/27 09:04:36;;;;;;;8.25;6.25;;;;;;;1.04;100.00;100613.53;10253026;29;20043;-73
2021/01/27 09:09:39;;;;;;;10.60;6.63;;;;;;;1.21;100.00;100589.22;10252186;28;20039;-71
2021/01/27 09:14:51;;;;;;;11.38;6.88;;;;;;;1.35;100.00;100580.47;10251969;29;20046;-71
2021/01/27 09:19:55;;;;;;;24.27;13.25;;;;;;;1.37;100.00;100570.94;10259046;28;20411;-72
2021/01/27 09:24:57;;;;;;;15.13;9.13;;;;;;;1.50;100.00;100576.91;10253946;28;20039;-72
2021/01/27 09:30:11;;;;;;;13.85;9.05;;;;;;;1.41;100.00;100559.66;10265545;28;20297;-72
2021/01/27 09:35:20;;;;;;;11.10;8.27;;;;;;;1.33;100.00;100553.69;10259103;29;20098;-72
2021/01/27 09:40:29;;;;;;;15.95;10.70;;;;;;;1.39;100.00;100558.81;10258442;28;20047;-72
2021/01/27 09:45:37;;;;;;;10.85;6.82;;;;;;;1.53;100.00;100572.53;10241060;29;20130;-72
2021/01/27 09:50:41;;;;;;;11.90;7.07;;;;;;;1.63;100.00;100577.66;10256879;29;20043;-72
2021/01/27 09:55:42;;;;;;;11.95;9.48;;;;;;;1.76;100.00;100576.66;10240721;29;20047;-71
2021/01/27 10:00:44;;;;;;;10.55;8.63;;;;;;;1.67;100.00;100572.44;10257348;29;20051;-72
2021/01/27 10:05:45;;;;;;;11.70;8.93;;;;;;;1.80;100.00;100584.44;10256547;29;20059;-72
2021/01/27 10:11:01;;;;;;;10.82;8.23;;;;;;;1.78;100.00;100570.59;10257039;29;20049;-72
2021/01/27 10:16:11;;;;;;;10.27;9.30;;;;;;;1.82;100.00;100587.88;10257990;28;20415;-72
2021/01/27 10:21:16;;;;;;;6.07;5.20;;;;;;;1.90;100.00;100587.81;10280426;28;20046;-72
2021/01/27 10:26:35;;;;;;;6.82;4.28;;;;;;;2.07;100.00;100598.91;10296187;28;20047;-74
2021/01/27 10:31:38;;;;;;;5.25;3.50;;;;;;;2.17;100.00;100602.28;10276832;28;20133;-73
2021/01/27 10:36:39;;;;;;;7.75;3.60;;;;;;;2.30;100.00;100601.25;10280143;28;20073;-71
2021/01/27 10:41:41;;;;;;;6.78;4.43;;;;;;;2.18;100.00;100578.84;10230575;28;20055;-72
2021/01/27 10:46:42;;;;;;;5.05;3.50;;;;;;;2.24;100.00;100585.72;10216674;29;20040;-72
2021/01/27 10:51:44;;;;;;;6.30;3.75;;;;;;;2.42;100.00;100597.66;10215819;29;20048;-72
2021/01/27 10:56:50;;;;;;;7.35;3.75;;;;;;;2.64;100.00;100604.34;10219703;29;20040;-72
2021/01/27 11:01:51;;;;;;;5.47;3.08;;;;;;;2.81;100.00;100601.53;10253743;29;20502;-73
2021/01/27 11:06:53;;;;;;;3.78;2.55;;;;;;;2.72;100.00;100576.50;10255669;29;20131;-72
2021/01/27 11:11:54;;;;;;;4.57;2.67;;;;;;;2.82;100.00;100569.44;10255032;28;20047;-72
2021/01/27 11:16:55;;;;;;;3.85;2.80;;;;;;;2.83;100.00;100571.16;10262873;28;20411;-72
2021/01/27 11:21:56;;;;;;;8.15;3.28;;;;;;;2.83;100.00;100564.22;10294062;28;20503;-72
2021/01/27 11:26:57;;;;;;;4.97;3.20;;;;;;;2.84;100.00;100552.94;10267234;28;20403;-72
2021/01/27 11:31:59;;;;;;;4.65;3.65;;;;;;;2.99;100.00;100550.09;10259066;28;20053;-73
2021/01/27 11:37:00;;;;;;;4.13;3.20;;;;;;;3.19;100.00;100552.41;10241375;28;20110;-72
2021/01/27 11:42:02;;;;;;;5.47;3.85;;;;;;;3.16;100.00;100536.84;10241169;28;20043;-71
2021/01/27 11:47:03;;;;;;;6.13;4.90;;;;;;;3.15;100.00;100511.69;10235249;28;20047;-72
2021/01/27 11:52:07;;;;;;;5.78;4.43;;;;;;;3.24;100.00;100500.28;10246435;28;20131;-73
2021/01/27 11:57:09;;;;;;;5.22;3.67;;;;;;;3.13;100.00;100483.97;10265491;28;20522;-73
2021/01/27 12:02:10;;;;;;;4.35;3.53;;;;;;;3.24;100.00;100477.72;10271809;28;20101;-73
2021/01/27 12:07:11;;;;;;;5.00;3.53;;;;;;;3.38;100.00;100486.16;10271832;28;20043;-72
2021/01/27 12:12:13;;;;;;;4.72;4.00;;;;;;;3.34;100.00;100478.41;10265783;28;20058;-72
2021/01/27 12:17:14;;;;;;;5.00;4.32;;;;;;;3.50;100.00;100481.63;10263699;28;20047;-72
2021/01/27 12:22:16;;;;;;;6.57;4.88;;;;;;;3.56;100.00;100482.38;10280511;28;20081;-71
2021/01/27 12:27:22;;;;;;;6.68;5.32;;;;;;;3.67;100.00;100488.25;10274052;28;20039;-73
2021/01/27 12:32:23;;;;;;;6.75;5.25;;;;;;;3.72;100.00;100468.19;10266192;28;20399;-73
2021/01/27 12:37:24;;;;;;;7.03;6.32;;;;;;;3.78;100.00;100459.38;10273353;28;20059;-72
2021/01/27 12:42:25;;;;;;;6.07;4.82;;;;;;;3.95;100.00;100456.44;10279092;28;20055;-73
2021/01/27 12:47:27;;;;;;;6.32;5.65;;;;;;;4.29;100.00;100469.66;10286284;28;20043;-72
2021/01/27 12:52:28;;;;;;;11.70;5.03;;;;;;;4.17;100.00;100435.16;10287934;28;20060;-73
2021/01/27 12:57:29;;;;;;;5.70;4.88;;;;;;;5.24;100.00;100482.28;10291678;28;20054;-73
2021/01/27 13:02:30;;;;;;;7.20;5.30;;;;;;;4.83;100.00;100436.28;10297114;28;20074;-71
2021/01/27 13:07:31;;;;;;;5.95;4.38;;;;;;;4.75;100.00;100435.59;10270628;28;20075;-72
2021/01/27 13:12:32;;;;;;;4.95;4.45;;;;;;;5.07;100.00;100434.84;10260919;28;20042;-71
2021/01/27 13:17:33;;;;;;;6.35;4.40;;;;;;;4.99;100.00;100413.28;10263025;28;20043;-72
2021/01/27 13:22:36;;;;;;;5.55;4.60;;;;;;;4.91;100.00;100413.47;10260323;28;20039;-71
2021/01/27 13:27:37;;;;;;;6.45;5.10;;;;;;;4.63;100.00;100392.38;10259730;28;20039;-72
2021/01/27 13:32:38;;;;;;;7.13;5.15;;;;;;;4.60;100.00;100394.22;10273291;28;20046;-73
2021/01/27 13:37:40;;;;;;;7.53;6.03;;;;;;;4.44;100.00;100396.28;10299799;28;20054;-72
2021/01/27 13:42:41;;;;;;;6.60;5.85;;;;;;;4.29;100.00;100401.84;10265567;28;20051;-73
2021/01/27 13:47:43;;;;;;;6.72;6.03;;;;;;;4.25;100.00;100408.03;10259649;29;20060;-73
2021/01/27 13:52:46;;;;;;;6.57;5.03;;;;;;;4.32;100.00;100427.88;10259733;29;20060;-73
2021/01/27 13:57:47;;;;;;;6.60;5.63;;;;;;;4.28;100.00;100437.50;10258785;29;20049;-73
2021/01/27 14:02:49;;;;;;;9.35;5.40;;;;;;;4.34;100.00;100445.22;10248866;29;20055;-74
2021/01/27 14:07:53;;;;;;;8.02;6.03;;;;;;;4.12;100.00;100426.53;10263673;29;20098;-74
2021/01/27 14:13:02;;;;;;;7.20;6.05;;;;;;;4.20;100.00;100439.41;10262292;29;20047;-73
2021/01/27 14:18:08;;;;;;;9.48;5.97;;;;;;;4.22;100.00;100440.25;10251506;28;20051;-72
2021/01/27 14:23:09;;;;;;;7.50;6.68;;;;;;;4.22;100.00;100440.25;10270484;28;20380;-73
2021/01/27 14:28:10;;;;;;;7.78;6.25;;;;;;;4.23;100.00;100452.41;10258046;28;20036;-74
2021/01/27 14:33:12;;;;;;;8.75;6.65;;;;;;;4.29;100.00;100456.63;10275520;28;20049;-74
2021/01/27 14:38:19;;;;;;;10.07;7.20;;;;;;;4.37;100.00;100465.13;10298266;28;20054;-72
2021/01/27 14:43:20;;;;;;;14.77;10.02;;;;;;;4.41;100.00;100472.03;10226012;29;20127;-72
2021/01/27 14:48:21;;;;;;;8.73;7.43;;;;;;;4.41;100.00;100478.09;10257430;29;20047;-73
2021/01/27 14:53:22;;;;;;;11.13;7.70;;;;;;;4.49;100.00;100485.75;10260190;28;20031;-74
2021/01/27 14:58:23;;;;;;;12.65;7.50;;;;;;;4.47;100.00;100484.91;10290285;28;20061;-74
2021/01/27 15:03:25;;;;;;;33.03;23.23;;;;;;;4.48;100.00;100486.66;10272527;28;20047;-72
2021/01/27 15:08:26;;;;;;;48.70;28.23;;;;;;;4.40;100.00;100486.81;10255799;28;20050;-74
2021/01/27 15:13:27;;;;;;;56.85;32.38;;;;;;;4.34;100.00;100488.69;10256007;29;20050;-72
2021/01/27 15:18:28;;;;;;;62.72;34.25;;;;;;;4.41;100.00;100501.56;10256149;28;20785;-72
2021/01/27 15:23:29;;;;;;;33.50;24.42;;;;;;;4.30;100.00;100498.31;10250286;28;20052;-71
2021/01/27 15:28:31;;;;;;;12.95;11.48;;;;;;;4.31;100.00;100514.81;10240947;28;20058;-71
2021/01/27 15:33:32;;;;;;;12.15;10.80;;;;;;;4.32;100.00;100521.75;10272952;28;20074;-72
2021/01/27 15:38:33;;;;;;;13.57;12.10;;;;;;;4.32;100.00;100517.41;10292542;28;20145;-72
2021/01/27 15:43:34;;;;;;;14.30;12.77;;;;;;;4.29;100.00;100516.59;10257696;28;20047;-72
2021/01/27 15:48:35;;;;;;;16.42;12.57;;;;;;;4.28;100.00;100525.31;10257438;28;20062;-72
2021/01/27 15:53:38;;;;;;;18.20;13.63;;;;;;;4.33;100.00;100529.56;10254395;29;20051;-72
2021/01/27 15:58:39;;;;;;;17.02;13.43;;;;;;;4.34;100.00;100536.50;10245067;28;20047;-72
2021/01/27 16:03:40;;;;;;;14.63;12.35;;;;;;;4.33;100.00;100542.59;10269966;28;20047;-72
2021/01/27 16:08:41;;;;;;;17.60;14.77;;;;;;;4.34;100.00;100546.94;10246958;28;20051;-72
2021/01/27 16:13:42;;;;;;;17.45;14.52;;;;;;;4.35;100.00;100558.22;10254249;29;20464;-72
2021/01/27 16:18:43;;;;;;;16.00;12.65;;;;;;;4.34;100.00;100552.16;10256473;28;20054;-72
2021/01/27 16:23:45;;;;;;;18.05;15.00;;;;;;;4.34;100.00;100546.94;10236936;29;20047;-72
2021/01/27 16:28:46;;;;;;;20.80;15.07;;;;;;;4.39;100.00;100559.84;10253602;28;20515;-72
2021/01/27 16:33:47;;;;;;;23.27;16.33;;;;;;;4.43;100.00;100570.22;10279889;28;20391;-72
2021/01/27 16:38:48;;;;;;;22.27;16.42;;;;;;;4.44;100.00;100566.69;10274549;28;20059;-72
2021/01/27 16:43:50;;;;;;;22.50;17.85;;;;;;;4.38;100.00;100564.22;10266021;28;20072;-72
2021/01/27 16:48:51;;;;;;;40.20;32.03;;;;;;;4.35;100.00;100556.44;10266484;29;20043;-72
2021/01/27 16:53:52;;;;;;;51.30;39.08;;;;;;;4.41;100.00;100565.91;10266738;28;20039;-72
2021/01/27 16:58:53;;;;;;;54.78;42.70;;;;;;;4.34;100.00;100567.78;10249467;29;20046;-72
2021/01/27 17:03:54;;;;;;;64.90;48.60;;;;;;;4.56;100.00;100576.91;10266375;29;20055;-73
2021/01/27 17:09:12;;;;;;;28.63;23.42;;;;;;;4.42;100.00;100563.28;10249623;28;20180;-72
2021/01/27 17:14:14;;;;;;;37.22;30.23;;;;;;;4.49;100.00;100577.91;10225756;29;20052;-73
2021/01/27 17:19:16;;;;;;;44.08;34.58;;;;;;;4.44;100.00;100566.69;10281001;28;20035;-72
2021/01/27 17:24:19;;;;;;;40.25;30.55;;;;;;;4.57;100.00;100580.38;10305437;28;20403;-72
2021/01/27 17:29:20;;;;;;;37.30;29.13;;;;;;;4.45;100.00;100573.63;10285204;28;20046;-72
2021/01/27 17:34:22;;;;;;;35.97;28.77;;;;;;;4.55;100.00;100589.97;10248484;28;20043;-72
2021/01/27 17:39:23;;;;;;;28.60;22.50;;;;;;;4.79;100.00;100607.72;10264311;28;20427;-73
2021/01/27 17:44:24;;;;;;;34.08;26.20;;;;;;;4.58;100.00;100574.25;10244471;28;20039;-73
2021/01/27 17:49:26;;;;;;;30.75;22.55;;;;;;;4.61;100.00;100563.75;10277696;28;20054;-73
2021/01/27 17:54:27;;;;;;;30.42;21.90;;;;;;;4.57;100.00;100564.72;10273008;28;20061;-72
2021/01/27 17:59:28;;;;;;;30.38;22.10;;;;;;;4.67;100.00;100568.00;10262393;28;20399;-73
2021/01/27 18:04:29;;;;;;;31.23;22.88;;;;;;;4.65;100.00;100565.41;10289465;28;20063;-73
2021/01/27 18:09:30;;;;;;;34.45;25.08;;;;;;;4.65;100.00;100572.38;10264657;28;20058;-73
2021/01/27 18:14:32;;;;;;;40.60;29.08;;;;;;;4.62;100.00;100570.69;10257784;29;20047;-73
2021/01/27 18:19:33;;;;;;;34.25;24.73;;;;;;;4.68;100.00;100601.91;10262893;28;20039;-73
2021/01/27 18:24:34;;;;;;;40.95;30.75;;;;;;;4.69;100.00;100590.53;10257494;29;20071;-73
2021/01/27 18:29:36;;;;;;;43.17;29.25;;;;;;;4.74;100.00;100593.94;10257687;28;20058;-73
2021/01/27 18:34:37;;;;;;;60.00;40.15;;;;;;;4.75;100.00;100584.34;10256536;29;20407;-73
2021/01/27 18:39:38;;;;;;;56.85;41.28;;;;;;;4.72;100.00;100564.38;10253744;28;20059;-73
2021/01/27 18:44:39;;;;;;;63.40;44.30;;;;;;;4.69;100.00;100580.09;10241504;28;20047;-73
2021/01/27 18:49:40;;;;;;;43.17;30.88;;;;;;;4.70;100.00;100583.56;10239254;28;20142;-73
2021/01/27 18:54:41;;;;;;;45.35;32.35;;;;;;;4.74;100.00;100580.03;10284341;28;20066;-73
2021/01/27 18:59:43;;;;;;;43.92;28.58;;;;;;;4.74;100.00;100580.88;10280227;28;20046;-72
2021/01/27 19:04:44;;;;;;;46.90;33.67;;;;;;;4.80;100.00;100600.75;10266460;28;20047;-72
2021/01/27 19:09:46;;;;;;;47.70;29.95;;;;;;;4.82;100.00;100578.09;10271898;28;20128;-72
2021/01/27 19:14:48;;;;;;;44.80;29.75;;;;;;;4.82;100.00;100581.59;10278062;28;20046;-72
2021/01/27 19:19:49;;;;;;;48.28;30.42;;;;;;;4.81;100.00;100577.25;10259802;28;20053;-72
2021/01/27 19:24:50;;;;;;;46.47;28.20;;;;;;;4.79;100.00;100584.25;10217616;28;20058;-73
2021/01/27 19:29:52;;;;;;;45.83;27.15;;;;;;;4.78;100.00;100561.63;10240370;28;20480;-72
2021/01/27 19:34:53;;;;;;;51.78;31.15;;;;;;;4.79;100.00;100571.19;10226234;29;20044;-72
2021/01/27 19:39:59;;;;;;;55.50;29.90;;;;;;;4.84;100.00;100590.25;10226364;29;20063;-73
2021/01/27 19:45:00;;;;;;;44.95;28.60;;;;;;;4.93;100.00;100582.22;10237528;29;20047;-72
2021/01/27 19:50:04;;;;;;;43.80;28.95;;;;;;;4.95;100.00;100595.22;10266859;28;20047;-72
2021/01/27 19:55:06;;;;;;;50.25;31.48;;;;;;;5.02;100.00;100593.34;10208109;29;20062;-72
2021/01/27 20:00:11;;;;;;;47.00;28.65;;;;;;;5.02;100.00;100595.97;10221069;29;20558;-72
2021/01/27 20:05:13;;;;;;;46.60;28.77;;;;;;;5.09;100.00;100602.78;10255016;29;20098;-72
2021/01/27 20:10:17;;;;;;;46.58;30.50;;;;;;;5.01;100.00;100581.19;10254217;28;20047;-72
2021/01/27 20:15:32;;;;;;;46.58;28.98;;;;;;;5.16;100.00;100589.53;10280217;28;20395;-73
2021/01/27 20:20:34;;;;;;;41.50;26.25;;;;;;;5.23;100.00;100585.03;10288531;28;20392;-72
2021/01/27 20:25:38;;;;;;;40.60;27.17;;;;;;;5.25;100.00;100578.88;10273106;28;20034;-72
2021/01/27 20:30:42;;;;;;;50.20;29.67;;;;;;;5.21;100.00;100568.53;10263268;28;20102;-73
2021/01/27 20:35:45;;;;;;;46.22;28.50;;;;;;;5.17;100.00;100557.31;10248244;28;20062;-73
2021/01/27 20:40:47;;;;;;;41.63;28.80;;;;;;;5.24;100.00;100563.25;10269173;28;20491;-73
2021/01/27 20:45:48;;;;;;;45.63;29.30;;;;;;;5.25;100.00;100568.44;10267031;28;20038;-73
2021/01/27 20:50:50;;;;;;;38.75;27.60;;;;;;;5.37;100.00;100582.94;10250856;29;20085;-73
2021/01/27 20:55:51;;;;;;;45.58;28.80;;;;;;;5.34;100.00;100560.38;10252665;28;20039;-73
2021/01/27 21:00:53;;;;;;;45.65;28.52;;;;;;;5.36;100.00;100559.50;10252977;29;20051;-73
2021/01/27 21:05:55;;;;;;;46.05;26.95;;;;;;;5.32;100.00;100543.03;10252427;29;20047;-73
2021/01/27 21:10:56;;;;;;;45.08;29.77;;;;;;;5.31;100.00;100552.63;10268946;28;20479;-73
2021/01/27 21:15:58;;;;;;;46.08;28.08;;;;;;;5.31;100.00;100544.78;10268639;28;20074;-73
2021/01/27 21:20:59;;;;;;;45.40;29.90;;;;;;;5.34;100.00;100547.34;10266404;28;20074;-73
2021/01/27 21:26:00;;;;;;;39.50;25.92;;;;;;;5.32;100.00;100524.75;10278681;28;20043;-72
2021/01/27 21:31:02;;;;;;;40.58;29.55;;;;;;;5.39;100.00;100528.91;10262748;28;20051;-73
2021/01/27 21:36:04;;;;;;;41.67;26.33;;;;;;;5.36;100.00;100522.94;10262081;28;20039;-73
2021/01/27 21:41:05;;;;;;;44.63;26.15;;;;;;;5.38;100.00;100521.13;10259532;28;20043;-73
2021/01/27 21:46:07;;;;;;;41.30;24.67;;;;;;;5.44;100.00;100505.31;10279607;28;20043;-73
2021/01/27 21:51:08;;;;;;;37.42;24.50;;;;;;;5.45;100.00;100507.84;10286415;28;20035;-73
2021/01/27 21:56:10;;;;;;;34.83;23.88;;;;;;;5.41;100.00;100505.38;10259644;29;20043;-73
2021/01/27 22:01:11;;;;;;;48.80;26.58;;;;;;;5.32;100.00;100496.00;10258469;29;20047;-73
2021/01/27 22:06:13;;;;;;;33.55;23.45;;;;;;;5.37;100.00;100503.72;10271878;28;20093;-73
2021/01/27 22:11:14;;;;;;;38.30;25.13;;;;;;;5.45;100.00;100520.06;10258213;28;20051;-73
2021/01/27 22:16:15;;;;;;;36.35;22.55;;;;;;;5.44;100.00;100511.38;10241291;29;20047;-73
2021/01/27 22:21:16;;;;;;;32.15;20.60;;;;;;;5.46;100.00;100506.97;10247697;29;20130;-73
2021/01/27 22:26:19;;;;;;;35.60;22.88;;;;;;;5.44;100.00;100513.97;10263038;28;20054;-73
2021/01/27 22:31:21;;;;;;;34.05;20.63;;;;;;;5.49;100.00;100509.53;10244321;28;20058;-73
2021/01/27 22:36:22;;;;;;;25.08;18.33;;;;;;;5.45;100.00;100501.78;10257381;29;20047;-73
2021/01/27 22:41:38;;;;;;;23.08;17.33;;;;;;;5.41;100.00;100497.53;10256782;28;20047;-73
2021/01/27 22:46:39;;;;;;;23.05;16.17;;;;;;;5.41;100.00;100500.16;10257506;29;20051;-73
2021/01/27 22:51:41;;;;;;;28.55;18.80;;;;;;;5.43;100.00;100501.84;10257505;29;20130;-73
2021/01/27 22:56:42;;;;;;;27.95;19.02;;;;;;;5.47;100.00;100503.47;10256539;29;20771;-73
2021/01/27 23:01:44;;;;;;;31.50;19.77;;;;;;;5.49;100.00;100491.22;10256673;29;20055;-73
2021/01/27 23:06:46;;;;;;;29.10;18.52;;;;;;;5.54;100.00;100501.53;10252275;29;20054;-73
2021/01/27 23:11:48;;;;;;;25.10;16.77;;;;;;;5.63;100.00;100504.78;10244989;29;20106;-73